sensor_id;sensor_type;location;lat;lon;timestamp;pressure;altitude;pressure_sealevel;temperature;humidity
74336;BME280;62755;-33.398;-70.572;2024-01-15T00:02:09;93048.31;;;28.56;22.84
74336;BME280;62755;-33.398;-70.572;2024-01-15T00:04:39;93046.84;;;28.55;23.39
74336;BME280;62755;-33.398;-70.572;2024-01-15T00:07:09;93051.28;;;28.58;23.21
74336;BME280;62755;-33.398;-70.572;2024-01-15T00:09:39;93047.28;;;28.59;23.13
74336;BME280;62755;-33.398;-70.572;2024-01-15T00:12:08;93054.09;;;28.71;23.39
74336;BME280;62755;-33.398;-70.572;2024-01-15T00:14:38;93054.84;;;28.72;23.12
74336;BME280;62755;-33.398;-70.572;2024-01-15T00:17:09;93054.97;;;28.79;23.30
74336;BME280;62755;-33.398;-70.572;2024-01-15T00:19:39;93055.56;;;28.72;22.96
74336;BME280;62755;-33.398;-70.572;2024-01-15T00:22:09;93057.03;;;28.60;22.96
74336;BME280;62755;-33.398;-70.572;2024-01-15T00:24:38;93060.63;;;28.55;22.99
74336;BME280;62755;-33.398;-70.572;2024-01-15T00:27:08;93063.56;;;28.44;23.42
74336;BME280;62755;-33.398;-70.572;2024-01-15T00:29:37;93063.84;;;28.40;23.34
74336;BME280;62755;-33.398;-70.572;2024-01-15T00:32:07;93071.06;;;28.30;24.23
74336;BME280;62755;-33.398;-70.572;2024-01-15T00:34:38;93066.84;;;28.11;24.10
74336;BME280;62755;-33.398;-70.572;2024-01-15T00:37:08;93072.25;;;28.16;23.99
74336;BME280;62755;-33.398;-70.572;2024-01-15T00:39:37;93070.44;;;28.19;23.96
74336;BME280;62755;-33.398;-70.572;2024-01-15T00:42:07;93066.97;;;28.00;24.36
74336;BME280;62755;-33.398;-70.572;2024-01-15T00:44:36;93069.88;;;28.07;24.54
74336;BME280;62755;-33.398;-70.572;2024-01-15T00:47:06;93067.66;;;28.06;24.56
74336;BME280;62755;-33.398;-70.572;2024-01-15T00:49:37;93073.59;;;28.28;24.58
74336;BME280;62755;-33.398;-70.572;2024-01-15T00:52:07;93068.66;;;28.21;24.76
74336;BME280;62755;-33.398;-70.572;2024-01-15T00:54:36;93076.91;;;28.08;25.39
74336;BME280;62755;-33.398;-70.572;2024-01-15T00:57:07;93077.66;;;28.09;25.09
74336;BME280;62755;-33.398;-70.572;2024-01-15T00:59:36;93075.03;;;27.98;26.13
74336;BME280;62755;-33.398;-70.572;2024-01-15T01:02:06;93082.25;;;27.82;26.45
74336;BME280;62755;-33.398;-70.572;2024-01-15T01:04:37;93080.47;;;27.85;26.29
74336;BME280;62755;-33.398;-70.572;2024-01-15T01:07:06;93077.94;;;27.87;26.65
74336;BME280;62755;-33.398;-70.572;2024-01-15T01:09:36;93063.78;;;27.96;26.40
74336;BME280;62755;-33.398;-70.572;2024-01-15T01:12:06;93067.66;;;28.06;26.55
74336;BME280;62755;-33.398;-70.572;2024-01-15T01:14:35;93073.16;;;27.87;26.19
74336;BME280;62755;-33.398;-70.572;2024-01-15T01:17:05;93088.00;;;28.03;26.63
74336;BME280;62755;-33.398;-70.572;2024-01-15T01:19:35;93081.72;;;27.83;27.05
74336;BME280;62755;-33.398;-70.572;2024-01-15T01:22:06;93086.88;;;27.93;27.50
74336;BME280;62755;-33.398;-70.572;2024-01-15T01:24:36;93087.44;;;27.86;27.47
74336;BME280;62755;-33.398;-70.572;2024-01-15T01:27:05;93087.44;;;27.86;27.37
74336;BME280;62755;-33.398;-70.572;2024-01-15T01:29:35;93090.66;;;27.90;27.59
74336;BME280;62755;-33.398;-70.572;2024-01-15T01:32:05;93089.09;;;27.75;28.00
74336;BME280;62755;-33.398;-70.572;2024-01-15T01:34:40;93089.69;;;27.68;27.66
74336;BME280;62755;-33.398;-70.572;2024-01-15T01:37:13;93088.22;;;27.67;28.27
74336;BME280;62755;-33.398;-70.572;2024-01-15T01:39:44;93084.75;;;27.43;28.80
74336;BME280;62755;-33.398;-70.572;2024-01-15T01:42:14;93085.59;;;27.32;28.50
74336;BME280;62755;-33.398;-70.572;2024-01-15T01:44:45;93088.03;;;27.17;29.99
74336;BME280;62755;-33.398;-70.572;2024-01-15T01:47:16;93083.72;;;27.22;30.22
74336;BME280;62755;-33.398;-70.572;2024-01-15T01:49:47;93088.31;;;27.38;29.54
74336;BME280;62755;-33.398;-70.572;2024-01-15T01:52:19;93091.91;;;27.51;29.67
74336;BME280;62755;-33.398;-70.572;2024-01-15T01:54:50;93090.13;;;27.54;29.74
74336;BME280;62755;-33.398;-70.572;2024-01-15T01:57:22;93087.13;;;27.52;29.99
74336;BME280;62755;-33.398;-70.572;2024-01-15T01:59:52;93087.88;;;27.52;29.39
74336;BME280;62755;-33.398;-70.572;2024-01-15T02:02:23;93094.44;;;27.49;29.51
74336;BME280;62755;-33.398;-70.572;2024-01-15T02:04:54;93094.59;;;27.57;29.19
74336;BME280;62755;-33.398;-70.572;2024-01-15T02:07:27;93086.25;;;27.62;29.80
74336;BME280;62755;-33.398;-70.572;2024-01-15T02:09:57;93083.88;;;27.53;29.16
74336;BME280;62755;-33.398;-70.572;2024-01-15T02:12:29;93084.78;;;27.61;29.39
74336;BME280;62755;-33.398;-70.572;2024-01-15T02:14:59;93084.31;;;27.57;29.62
74336;BME280;62755;-33.398;-70.572;2024-01-15T02:17:30;93082.69;;;27.67;29.78
74336;BME280;62755;-33.398;-70.572;2024-01-15T02:20:00;93083.66;;;27.51;29.54
74336;BME280;62755;-33.398;-70.572;2024-01-15T02:22:32;93082.28;;;27.39;29.69
74336;BME280;62755;-33.398;-70.572;2024-01-15T02:25:05;93082.97;;;27.45;29.91
74336;BME280;62755;-33.398;-70.572;2024-01-15T02:27:36;93082.16;;;27.26;30.55
74336;BME280;62755;-33.398;-70.572;2024-01-15T02:30:07;93086.31;;;27.14;30.79
74336;BME280;62755;-33.398;-70.572;2024-01-15T02:32:37;93078.69;;;27.02;30.84
74336;BME280;62755;-33.398;-70.572;2024-01-15T02:35:08;93084.34;;;27.09;30.79
74336;BME280;62755;-33.398;-70.572;2024-01-15T02:37:38;93082.03;;;26.89;30.84
74336;BME280;62755;-33.398;-70.572;2024-01-15T02:40:12;93075.84;;;27.07;30.09
74336;BME280;62755;-33.398;-70.572;2024-01-15T02:42:43;93080.06;;;27.14;30.90
74336;BME280;62755;-33.398;-70.572;2024-01-15T02:45:14;93077.22;;;27.19;30.75
74336;BME280;62755;-33.398;-70.572;2024-01-15T02:47:44;93068.91;;;27.25;30.17
74336;BME280;62755;-33.398;-70.572;2024-01-15T02:50:15;93075.63;;;27.29;30.85
74336;BME280;62755;-33.398;-70.572;2024-01-15T02:52:45;93063.56;;;27.32;30.80
74336;BME280;62755;-33.398;-70.572;2024-01-15T02:55:17;93063.69;;;27.21;30.79
74336;BME280;62755;-33.398;-70.572;2024-01-15T02:57:48;93069.44;;;27.23;30.10
74336;BME280;62755;-33.398;-70.572;2024-01-15T03:00:18;93060.84;;;27.08;30.87
74336;BME280;62755;-33.398;-70.572;2024-01-15T03:02:49;93060.16;;;27.02;31.03
74336;BME280;62755;-33.398;-70.572;2024-01-15T03:05:20;93059.81;;;27.11;31.26
74336;BME280;62755;-33.398;-70.572;2024-01-15T03:07:51;93052.69;;;27.21;30.89
74336;BME280;62755;-33.398;-70.572;2024-01-15T03:10:22;93052.38;;;27.06;30.42
74336;BME280;62755;-33.398;-70.572;2024-01-15T03:12:53;93040.88;;;26.78;30.81
74336;BME280;62755;-33.398;-70.572;2024-01-15T03:15:23;93045.81;;;26.85;31.55
74336;BME280;62755;-33.398;-70.572;2024-01-15T03:17:53;93044.47;;;26.73;31.09
74336;BME280;62755;-33.398;-70.572;2024-01-15T03:20:22;93043.28;;;26.63;31.12
74336;BME280;62755;-33.398;-70.572;2024-01-15T03:22:52;93038.47;;;26.69;30.96
74336;BME280;62755;-33.398;-70.572;2024-01-15T03:25:23;93036.19;;;26.73;30.76
74336;BME280;62755;-33.398;-70.572;2024-01-15T03:27:53;93029.81;;;26.83;30.59
74336;BME280;62755;-33.398;-70.572;2024-01-15T03:30:22;93030.75;;;26.62;30.49
74336;BME280;62755;-33.398;-70.572;2024-01-15T03:32:52;93032.03;;;26.61;30.26
74336;BME280;62755;-33.398;-70.572;2024-01-15T03:35:21;93040.00;;;26.64;30.60
74336;BME280;62755;-33.398;-70.572;2024-01-15T03:37:56;93027.78;;;26.60;30.74
74336;BME280;62755;-33.398;-70.572;2024-01-15T03:40:27;93032.72;;;26.67;30.12
74336;BME280;62755;-33.398;-70.572;2024-01-15T03:42:57;93029.38;;;26.50;30.49
74336;BME280;62755;-33.398;-70.572;2024-01-15T03:45:26;93029.84;;;26.54;30.34
74336;BME280;62755;-33.398;-70.572;2024-01-15T03:47:56;93020.09;;;26.53;30.80
74336;BME280;62755;-33.398;-70.572;2024-01-15T03:50:25;93023.41;;;26.46;30.80
74336;BME280;62755;-33.398;-70.572;2024-01-15T03:52:55;93014.47;;;26.40;30.96
74336;BME280;62755;-33.398;-70.572;2024-01-15T03:55:26;93019.53;;;26.36;31.11
74336;BME280;62755;-33.398;-70.572;2024-01-15T03:57:55;93019.59;;;26.54;30.94
74336;BME280;62755;-33.398;-70.572;2024-01-15T04:00:25;93011.75;;;26.64;30.99
74336;BME280;62755;-33.398;-70.572;2024-01-15T04:02:54;93015.00;;;26.62;31.54
74336;BME280;62755;-33.398;-70.572;2024-01-15T04:05:24;93003.38;;;26.51;31.91
74336;BME280;62755;-33.398;-70.572;2024-01-15T04:07:53;93010.25;;;26.63;31.31
74336;BME280;62755;-33.398;-70.572;2024-01-15T04:10:23;93018.84;;;26.24;31.84
74336;BME280;62755;-33.398;-70.572;2024-01-15T04:12:54;93009.66;;;26.22;32.19
74336;BME280;62755;-33.398;-70.572;2024-01-15T04:15:24;92999.19;;;26.44;32.08
74336;BME280;62755;-33.398;-70.572;2024-01-15T04:17:53;93007.75;;;26.05;30.94
74336;BME280;62755;-33.398;-70.572;2024-01-15T04:20:23;93001.75;;;25.72;31.93
74336;BME280;62755;-33.398;-70.572;2024-01-15T04:22:53;92995.44;;;25.82;31.69
74336;BME280;62755;-33.398;-70.572;2024-01-15T04:25:22;93009.31;;;25.95;31.26
74336;BME280;62755;-33.398;-70.572;2024-01-15T04:27:54;92992.84;;;25.95;30.69
74336;BME280;62755;-33.398;-70.572;2024-01-15T04:30:23;92994.69;;;26.17;30.46
74336;BME280;62755;-33.398;-70.572;2024-01-15T04:32:53;92991.34;;;25.94;29.65
74336;BME280;62755;-33.398;-70.572;2024-01-15T04:35:22;92994.41;;;25.85;30.79
74336;BME280;62755;-33.398;-70.572;2024-01-15T04:37:52;92990.66;;;25.53;30.73
74336;BME280;62755;-33.398;-70.572;2024-01-15T04:40:22;92997.78;;;25.67;30.23
74336;BME280;62755;-33.398;-70.572;2024-01-15T04:42:56;92985.81;;;25.65;30.80
74336;BME280;62755;-33.398;-70.572;2024-01-15T04:45:25;92987.59;;;25.62;30.52
74336;BME280;62755;-33.398;-70.572;2024-01-15T04:47:56;92992.88;;;25.55;30.37
74336;BME280;62755;-33.398;-70.572;2024-01-15T04:50:25;92989.00;;;25.74;30.19
74336;BME280;62755;-33.398;-70.572;2024-01-15T04:52:55;92987.66;;;25.86;29.87
74336;BME280;62755;-33.398;-70.572;2024-01-15T04:55:24;92982.16;;;25.51;30.17
74336;BME280;62755;-33.398;-70.572;2024-01-15T04:57:55;92974.56;;;25.68;30.31
74336;BME280;62755;-33.398;-70.572;2024-01-15T05:00:25;92974.75;;;25.76;30.39
74336;BME280;62755;-33.398;-70.572;2024-01-15T05:02:54;92973.13;;;25.56;30.05
74336;BME280;62755;-33.398;-70.572;2024-01-15T05:05:24;92969.91;;;25.87;30.13
74336;BME280;62755;-33.398;-70.572;2024-01-15T05:07:53;92964.03;;;25.72;30.57
74336;BME280;62755;-33.398;-70.572;2024-01-15T05:10:23;92973.34;;;25.64;30.84
74336;BME280;62755;-33.398;-70.572;2024-01-15T05:12:52;92973.00;;;25.78;30.90
74336;BME280;62755;-33.398;-70.572;2024-01-15T05:15:24;92958.59;;;25.61;30.93
74336;BME280;62755;-33.398;-70.572;2024-01-15T05:17:53;92964.56;;;25.65;30.98
74336;BME280;62755;-33.398;-70.572;2024-01-15T05:20:23;92957.88;;;25.61;31.16
74336;BME280;62755;-33.398;-70.572;2024-01-15T05:22:52;92951.06;;;25.67;30.84
74336;BME280;62755;-33.398;-70.572;2024-01-15T05:25:22;92944.88;;;25.61;31.00
74336;BME280;62755;-33.398;-70.572;2024-01-15T05:27:51;92944.63;;;25.59;30.85
74336;BME280;62755;-33.398;-70.572;2024-01-15T05:30:22;92938.44;;;25.59;30.88
74336;BME280;62755;-33.398;-70.572;2024-01-15T05:32:52;92941.47;;;25.50;31.00
74336;BME280;62755;-33.398;-70.572;2024-01-15T05:35:21;92941.38;;;25.20;31.65
74336;BME280;62755;-33.398;-70.572;2024-01-15T05:37:51;92935.84;;;25.31;31.67
74336;BME280;62755;-33.398;-70.572;2024-01-15T05:40:20;92925.63;;;25.26;31.81
74336;BME280;62755;-33.398;-70.572;2024-01-15T05:42:50;92931.28;;;25.39;31.34
74336;BME280;62755;-33.398;-70.572;2024-01-15T05:45:19;92923.34;;;25.30;31.68
74336;BME280;62755;-33.398;-70.572;2024-01-15T05:47:51;92923.31;;;25.41;31.65
74336;BME280;62755;-33.398;-70.572;2024-01-15T05:50:20;92914.59;;;25.37;31.78
74336;BME280;62755;-33.398;-70.572;2024-01-15T05:52:50;92918.22;;;25.15;32.29
74336;BME280;62755;-33.398;-70.572;2024-01-15T05:55:19;92910.97;;;25.12;31.90
74336;BME280;62755;-33.398;-70.572;2024-01-15T05:57:49;92893.91;;;24.90;32.11
74336;BME280;62755;-33.398;-70.572;2024-01-15T06:00:19;92899.91;;;24.83;32.70
74336;BME280;62755;-33.398;-70.572;2024-01-15T06:02:50;92897.66;;;24.87;32.17
74336;BME280;62755;-33.398;-70.572;2024-01-15T06:05:19;92889.50;;;24.76;32.44
74336;BME280;62755;-33.398;-70.572;2024-01-15T06:07:49;92888.91;;;24.94;32.39
74336;BME280;62755;-33.398;-70.572;2024-01-15T06:10:18;92890.22;;;24.82;32.44
74336;BME280;62755;-33.398;-70.572;2024-01-15T06:12:48;92888.66;;;24.92;31.86
74336;BME280;62755;-33.398;-70.572;2024-01-15T06:15:17;92894.22;;;24.70;32.14
74336;BME280;62755;-33.398;-70.572;2024-01-15T06:17:47;92886.00;;;24.70;32.57
74336;BME280;62755;-33.398;-70.572;2024-01-15T06:20:18;92888.72;;;24.81;32.01
74336;BME280;62755;-33.398;-70.572;2024-01-15T06:22:47;92881.00;;;24.79;32.02
74336;BME280;62755;-33.398;-70.572;2024-01-15T06:25:17;92874.78;;;24.73;31.99
74336;BME280;62755;-33.398;-70.572;2024-01-15T06:27:46;92877.50;;;24.84;31.86
74336;BME280;62755;-33.398;-70.572;2024-01-15T06:30:16;92875.66;;;24.98;31.20
74336;BME280;62755;-33.398;-70.572;2024-01-15T06:32:46;92872.00;;;24.84;31.62
74336;BME280;62755;-33.398;-70.572;2024-01-15T06:35:17;92868.56;;;24.73;31.61
74336;BME280;62755;-33.398;-70.572;2024-01-15T06:37:47;92868.19;;;24.93;31.89
74336;BME280;62755;-33.398;-70.572;2024-01-15T06:40:17;92864.47;;;24.90;32.01
74336;BME280;62755;-33.398;-70.572;2024-01-15T06:42:46;92863.50;;;24.88;31.14
74336;BME280;62755;-33.398;-70.572;2024-01-15T06:45:16;92863.72;;;24.90;31.54
74336;BME280;62755;-33.398;-70.572;2024-01-15T06:47:45;92855.06;;;24.80;31.50
74336;BME280;62755;-33.398;-70.572;2024-01-15T06:50:15;92850.25;;;24.92;31.48
74336;BME280;62755;-33.398;-70.572;2024-01-15T06:52:46;92868.56;;;24.67;32.00
74336;BME280;62755;-33.398;-70.572;2024-01-15T06:55:15;92864.25;;;24.83;31.96
74336;BME280;62755;-33.398;-70.572;2024-01-15T06:57:45;92860.31;;;24.73;32.24
74336;BME280;62755;-33.398;-70.572;2024-01-15T07:00:15;92853.88;;;24.59;32.61
74336;BME280;62755;-33.398;-70.572;2024-01-15T07:02:46;92855.66;;;24.57;32.49
74336;BME280;62755;-33.398;-70.572;2024-01-15T07:05:16;92865.41;;;24.47;32.81
74336;BME280;62755;-33.398;-70.572;2024-01-15T07:07:47;92852.91;;;24.57;32.91
74336;BME280;62755;-33.398;-70.572;2024-01-15T07:10:17;92854.13;;;24.67;32.84
74336;BME280;62755;-33.398;-70.572;2024-01-15T07:12:46;92854.31;;;24.80;32.51
74336;BME280;62755;-33.398;-70.572;2024-01-15T07:15:16;92851.38;;;24.67;32.98
74336;BME280;62755;-33.398;-70.572;2024-01-15T07:17:45;92855.94;;;24.48;33.26
74336;BME280;62755;-33.398;-70.572;2024-01-15T07:20:15;92857.44;;;24.49;33.62
74336;BME280;62755;-33.398;-70.572;2024-01-15T07:22:48;92854.44;;;24.47;33.38
74336;BME280;62755;-33.398;-70.572;2024-01-15T07:25:17;92843.50;;;24.47;33.50
74336;BME280;62755;-33.398;-70.572;2024-01-15T07:27:47;92833.84;;;24.29;33.18
74336;BME280;62755;-33.398;-70.572;2024-01-15T07:30:17;92842.53;;;24.38;33.21
74336;BME280;62755;-33.398;-70.572;2024-01-15T07:32:46;92839.56;;;24.25;33.18
74336;BME280;62755;-33.398;-70.572;2024-01-15T07:35:16;92834.72;;;24.54;33.12
74336;BME280;62755;-33.398;-70.572;2024-01-15T07:37:47;92837.53;;;24.42;33.50
74336;BME280;62755;-33.398;-70.572;2024-01-15T07:40:17;92831.06;;;24.34;33.71
74336;BME280;62755;-33.398;-70.572;2024-01-15T07:42:46;92829.69;;;24.11;33.97
74336;BME280;62755;-33.398;-70.572;2024-01-15T07:45:16;92830.69;;;24.03;34.39
74336;BME280;62755;-33.398;-70.572;2024-01-15T07:47:46;92828.19;;;23.88;34.82
74336;BME280;62755;-33.398;-70.572;2024-01-15T07:50:16;92826.75;;;23.65;35.06
74336;BME280;62755;-33.398;-70.572;2024-01-15T07:52:47;92828.25;;;23.55;35.39
74336;BME280;62755;-33.398;-70.572;2024-01-15T07:55:17;92835.25;;;23.34;35.57
74336;BME280;62755;-33.398;-70.572;2024-01-15T07:57:47;92818.81;;;23.12;35.78
74336;BME280;62755;-33.398;-70.572;2024-01-15T08:00:17;92820.78;;;22.84;36.53
74336;BME280;62755;-33.398;-70.572;2024-01-15T08:02:47;92828.25;;;22.94;36.14
74336;BME280;62755;-33.398;-70.572;2024-01-15T08:05:16;92821.03;;;22.91;36.18
74336;BME280;62755;-33.398;-70.572;2024-01-15T08:07:47;92813.34;;;23.01;35.85
74336;BME280;62755;-33.398;-70.572;2024-01-15T08:10:17;92810.13;;;23.13;35.79
74336;BME280;62755;-33.398;-70.572;2024-01-15T08:12:47;92813.09;;;23.37;34.96
74336;BME280;62755;-33.398;-70.572;2024-01-15T08:15:16;92810.13;;;23.46;34.75
74336;BME280;62755;-33.398;-70.572;2024-01-15T08:17:46;92804.38;;;23.61;34.87
74336;BME280;62755;-33.398;-70.572;2024-01-15T08:20:15;92805.13;;;23.62;34.65
74336;BME280;62755;-33.398;-70.572;2024-01-15T08:22:47;92811.34;;;23.62;35.03
74336;BME280;62755;-33.398;-70.572;2024-01-15T08:25:16;92813.31;;;23.78;35.22
74336;BME280;62755;-33.398;-70.572;2024-01-15T08:27:46;92812.56;;;23.78;34.98
74336;BME280;62755;-33.398;-70.572;2024-01-15T08:30:15;92809.81;;;23.83;35.22
74336;BME280;62755;-33.398;-70.572;2024-01-15T08:32:45;92812.00;;;24.01;35.08
74336;BME280;62755;-33.398;-70.572;2024-01-15T08:35:15;92806.25;;;24.10;34.85
74336;BME280;62755;-33.398;-70.572;2024-01-15T08:37:46;92807.50;;;24.04;34.85
74336;BME280;62755;-33.398;-70.572;2024-01-15T08:40:16;92806.69;;;24.25;34.63
74336;BME280;62755;-33.398;-70.572;2024-01-15T08:42:45;92811.72;;;24.21;34.98
74336;BME280;62755;-33.398;-70.572;2024-01-15T08:45:16;92816.69;;;24.17;34.62
74336;BME280;62755;-33.398;-70.572;2024-01-15T08:47:47;92812.22;;;24.14;35.11
74336;BME280;62755;-33.398;-70.572;2024-01-15T08:50:16;92811.75;;;24.05;35.73
74336;BME280;62755;-33.398;-70.572;2024-01-15T08:52:46;92814.72;;;24.12;35.02
74336;BME280;62755;-33.398;-70.572;2024-01-15T08:55:15;92816.47;;;24.15;35.10
74336;BME280;62755;-33.398;-70.572;2024-01-15T08:57:45;92823.22;;;23.92;35.23
74336;BME280;62755;-33.398;-70.572;2024-01-15T09:02:52;92828.19;;;23.88;34.98
74336;BME280;62755;-33.398;-70.572;2024-01-15T09:05:23;92820.97;;;23.91;34.76
74336;BME280;62755;-33.398;-70.572;2024-01-15T09:07:54;92833.41;;;23.97;34.19
74336;BME280;62755;-33.398;-70.572;2024-01-15T09:10:24;92832.94;;;23.93;34.60
74336;BME280;62755;-33.398;-70.572;2024-01-15T09:12:53;92835.94;;;23.90;33.24
74336;BME280;62755;-33.398;-70.572;2024-01-15T09:15:23;92839.47;;;23.68;33.31
74336;BME280;62755;-33.398;-70.572;2024-01-15T09:17:52;92832.25;;;23.65;33.37
74336;BME280;62755;-33.398;-70.572;2024-01-15T09:20:22;92836.75;;;23.46;33.45
74336;BME280;62755;-33.398;-70.572;2024-01-15T09:22:54;92835.25;;;23.45;33.89
74336;BME280;62755;-33.398;-70.572;2024-01-15T09:25:24;92844.47;;;23.59;34.12
74336;BME280;62755;-33.398;-70.572;2024-01-15T09:27:53;92841.72;;;23.42;33.76
74336;BME280;62755;-33.398;-70.572;2024-01-15T09:30:23;92844.69;;;23.61;33.90
74336;BME280;62755;-33.398;-70.572;2024-01-15T09:32:52;92852.44;;;23.57;34.18
74336;BME280;62755;-33.398;-70.572;2024-01-15T09:35:22;92827.78;;;23.40;34.08
74336;BME280;62755;-33.398;-70.572;2024-01-15T09:37:53;92858.13;;;23.53;33.96
74336;BME280;62755;-33.398;-70.572;2024-01-15T09:40:22;92861.88;;;23.72;33.98
74336;BME280;62755;-33.398;-70.572;2024-01-15T09:42:53;92864.34;;;23.70;33.85
74336;BME280;62755;-33.398;-70.572;2024-01-15T09:45:23;92862.59;;;23.67;34.37
74336;BME280;62755;-33.398;-70.572;2024-01-15T09:47:52;92870.56;;;23.65;34.35
74336;BME280;62755;-33.398;-70.572;2024-01-15T09:50:22;92873.56;;;23.67;34.62
74336;BME280;62755;-33.398;-70.572;2024-01-15T09:52:53;92875.56;;;23.72;34.92
74336;BME280;62755;-33.398;-70.572;2024-01-15T09:55:24;92866.09;;;23.62;34.91
74336;BME280;62755;-33.398;-70.572;2024-01-15T09:57:55;92881.03;;;23.72;34.97
74336;BME280;62755;-33.398;-70.572;2024-01-15T10:00:26;92880.00;;;23.86;34.94
74336;BME280;62755;-33.398;-70.572;2024-01-15T10:02:56;92879.25;;;23.75;35.28
74336;BME280;62755;-33.398;-70.572;2024-01-15T10:05:27;92871.28;;;23.88;35.07
74336;BME280;62755;-33.398;-70.572;2024-01-15T10:07:59;92882.00;;;23.69;35.09
74336;BME280;62755;-33.398;-70.572;2024-01-15T10:10:30;92879.50;;;23.77;35.38
74336;BME280;62755;-33.398;-70.572;2024-01-15T10:13:00;92881.25;;;23.69;35.44
74336;BME280;62755;-33.398;-70.572;2024-01-15T10:15:34;92885.50;;;23.64;35.87
74336;BME280;62755;-33.398;-70.572;2024-01-15T10:18:05;92893.25;;;23.54;35.70
74336;BME280;62755;-33.398;-70.572;2024-01-15T10:20:34;92882.28;;;23.49;35.66
74336;BME280;62755;-33.398;-70.572;2024-01-15T10:23:06;92887.00;;;23.54;35.02
74336;BME280;62755;-33.398;-70.572;2024-01-15T10:25:36;92882.03;;;23.47;35.12
74336;BME280;62755;-33.398;-70.572;2024-01-15T10:28:06;92890.97;;;23.53;34.70
74336;BME280;62755;-33.398;-70.572;2024-01-15T10:30:36;92893.97;;;23.44;34.98
74336;BME280;62755;-33.398;-70.572;2024-01-15T10:33:06;92889.25;;;23.44;35.58
74336;BME280;62755;-33.398;-70.572;2024-01-15T10:35:35;92889.97;;;23.45;35.22
74336;BME280;62755;-33.398;-70.572;2024-01-15T10:38:07;92891.97;;;23.39;35.54
74336;BME280;62755;-33.398;-70.572;2024-01-15T10:40:36;92879.03;;;23.45;35.35
74336;BME280;62755;-33.398;-70.572;2024-01-15T10:43:06;92884.50;;;23.34;35.16
74336;BME280;62755;-33.398;-70.572;2024-01-15T10:45:35;92880.78;;;23.42;35.47
74336;BME280;62755;-33.398;-70.572;2024-01-15T10:48:06;92879.03;;;23.45;35.47
74336;BME280;62755;-33.398;-70.572;2024-01-15T10:50:36;92885.50;;;23.53;35.08
74336;BME280;62755;-33.398;-70.572;2024-01-15T10:53:09;92867.34;;;23.44;34.50
74336;BME280;62755;-33.398;-70.572;2024-01-15T10:55:42;92874.81;;;23.49;35.03
74336;BME280;62755;-33.398;-70.572;2024-01-15T10:58:12;92878.53;;;23.63;34.90
74336;BME280;62755;-33.398;-70.572;2024-01-15T11:00:42;92879.56;;;23.54;34.61
74336;BME280;62755;-33.398;-70.572;2024-01-15T11:03:12;92874.06;;;23.60;34.34
74336;BME280;62755;-33.398;-70.572;2024-01-15T11:05:43;92881.28;;;23.41;33.94
74336;BME280;62755;-33.398;-70.572;2024-01-15T11:08:18;92876.53;;;23.47;33.37
74336;BME280;62755;-33.398;-70.572;2024-01-15T11:10:50;92882.03;;;23.58;33.68
74336;BME280;62755;-33.398;-70.572;2024-01-15T11:13:21;92873.06;;;23.63;33.67
74336;BME280;62755;-33.398;-70.572;2024-01-15T11:15:57;92858.66;;;23.46;33.84
74336;BME280;62755;-33.398;-70.572;2024-01-15T11:18:28;92885.97;;;23.90;34.02
74336;BME280;62755;-33.398;-70.572;2024-01-15T11:21:22;92880.72;;;24.14;33.51
74336;BME280;62755;-33.398;-70.572;2024-01-15T11:23:56;92881.72;;;24.17;33.42
74336;BME280;62755;-33.398;-70.572;2024-01-15T11:26:33;92884.97;;;24.04;32.74
74336;BME280;62755;-33.398;-70.572;2024-01-15T11:29:03;92886.22;;;24.09;32.97
74336;BME280;62755;-33.398;-70.572;2024-01-15T11:34:59;92882.75;;;23.92;33.77
74336;BME280;62755;-33.398;-70.572;2024-01-15T11:37:56;92886.00;;;23.79;33.51
74336;BME280;62755;-33.398;-70.572;2024-01-15T11:40:22;92880.50;;;23.79;33.64
74336;BME280;62755;-33.398;-70.572;2024-01-15T11:42:51;92890.47;;;23.71;33.81
74336;BME280;62755;-33.398;-70.572;2024-01-15T11:45:21;92890.72;;;23.68;34.76
74336;BME280;62755;-33.398;-70.572;2024-01-15T11:48:12;92887.50;;;23.80;34.13
74336;BME280;62755;-33.398;-70.572;2024-01-15T11:50:43;92890.47;;;23.71;35.33
74336;BME280;62755;-33.398;-70.572;2024-01-15T11:53:17;92883.25;;;23.85;34.71
74336;BME280;62755;-33.398;-70.572;2024-01-15T11:55:51;92894.44;;;23.81;35.20
74336;BME280;62755;-33.398;-70.572;2024-01-15T11:58:21;92891.47;;;23.79;35.56
74336;BME280;62755;-33.398;-70.572;2024-01-15T12:00:52;92899.94;;;23.81;35.23
74336;BME280;62755;-33.398;-70.572;2024-01-15T12:03:22;92880.03;;;23.64;35.12
74336;BME280;62755;-33.398;-70.572;2024-01-15T12:05:54;92895.47;;;23.78;35.27
74336;BME280;62755;-33.398;-70.572;2024-01-15T12:08:25;92901.94;;;23.75;35.41
74336;BME280;62755;-33.398;-70.572;2024-01-15T12:10:56;92898.69;;;23.66;35.15
74336;BME280;62755;-33.398;-70.572;2024-01-15T12:13:26;92899.22;;;23.64;35.54
74336;BME280;62755;-33.398;-70.572;2024-01-15T12:15:56;92897.97;;;23.54;35.97
74336;BME280;62755;-33.398;-70.572;2024-01-15T12:18:26;92903.19;;;23.52;36.04
74336;BME280;62755;-33.398;-70.572;2024-01-15T12:20:56;92904.66;;;23.47;35.89
74336;BME280;62755;-33.398;-70.572;2024-01-15T12:23:25;92899.94;;;23.48;35.32
74336;BME280;62755;-33.398;-70.572;2024-01-15T12:25:57;92904.66;;;23.42;35.70
74336;BME280;62755;-33.398;-70.572;2024-01-15T12:28:28;92899.44;;;23.44;36.09
74336;BME280;62755;-33.398;-70.572;2024-01-15T12:30:58;92904.66;;;23.42;36.17
74336;BME280;62755;-33.398;-70.572;2024-01-15T12:33:33;92897.47;;;23.50;36.08
74336;BME280;62755;-33.398;-70.572;2024-01-15T12:36:03;92900.94;;;23.56;36.05
74336;BME280;62755;-33.398;-70.572;2024-01-15T12:38:33;92905.41;;;23.48;36.37
74336;BME280;62755;-33.398;-70.572;2024-01-15T12:41:04;92899.19;;;23.70;35.61
74336;BME280;62755;-33.398;-70.572;2024-01-15T12:43:34;92899.94;;;23.65;35.65
74336;BME280;62755;-33.398;-70.572;2024-01-15T12:46:04;92900.44;;;23.69;36.35
74336;BME280;62755;-33.398;-70.572;2024-01-15T12:48:34;92906.41;;;23.89;36.10
74336;BME280;62755;-33.398;-70.572;2024-01-15T12:51:07;92906.88;;;23.99;36.04
74336;BME280;62755;-33.398;-70.572;2024-01-15T12:53:37;92907.38;;;24.08;36.22